createdAt,value
2023-02-23T00:00:05.746Z,584.00
2023-02-23T00:00:35.860Z,583.00
2023-02-23T00:01:05.969Z,582.00
2023-02-23T00:01:36.085Z,581.00
2023-02-23T00:02:06.340Z,578.00
2023-02-23T00:02:36.256Z,577.00
2023-02-23T00:03:06.472Z,578.00
2023-02-23T00:03:36.413Z,578.00
2023-02-23T00:04:06.430Z,577.00
2023-02-23T00:04:36.426Z,575.00
2023-02-23T00:05:06.409Z,577.00
2023-02-23T00:05:36.528Z,578.00
2023-02-23T00:06:06.639Z,579.00
2023-02-23T00:06:36.820Z,579.00
2023-02-23T00:07:06.792Z,579.00
2023-02-23T00:07:36.933Z,579.00
2023-02-23T00:08:07.028Z,581.00
2023-02-23T00:08:37.143Z,582.00
2023-02-23T00:09:07.273Z,580.00
2023-02-23T00:09:37.382Z,580.00
2023-02-23T00:10:07.370Z,583.00
2023-02-23T00:10:37.479Z,582.00
2023-02-23T00:11:07.590Z,583.00
2023-02-23T00:11:37.645Z,581.00
2023-02-23T00:12:08.013Z,582.00
2023-02-23T00:12:37.886Z,581.00
2023-02-23T00:13:07.888Z,580.00
2023-02-23T00:13:37.992Z,579.00
2023-02-23T00:14:08.116Z,577.00
2023-02-23T00:14:38.438Z,577.00
2023-02-23T00:15:08.207Z,576.00
2023-02-23T00:15:38.324Z,574.00
2023-02-23T00:16:08.467Z,573.00
2023-02-23T00:16:38.503Z,573.00
2023-02-23T00:17:08.511Z,571.00
2023-02-23T00:17:38.508Z,571.00
2023-02-23T00:18:08.644Z,572.00
2023-02-23T00:18:38.618Z,574.00
2023-02-23T00:19:08.799Z,571.00
2023-02-23T00:19:38.757Z,570.00
2023-02-23T00:20:08.871Z,571.00
2023-02-23T00:20:38.983Z,571.00
2023-02-23T00:21:09.106Z,572.00
2023-02-23T00:21:39.213Z,572.00
2023-02-23T00:22:09.324Z,571.00
2023-02-23T00:22:39.438Z,570.00
2023-02-23T00:23:09.425Z,571.00
2023-02-23T00:23:39.544Z,573.00
2023-02-23T00:24:09.654Z,575.00
2023-02-23T00:24:39.781Z,574.00
2023-02-23T00:25:09.773Z,574.00
2023-02-23T00:25:39.880Z,573.00
2023-02-23T00:26:09.997Z,573.00
2023-02-23T00:26:40.105Z,573.00
2023-02-23T00:27:10.220Z,572.00
2023-02-23T00:27:40.356Z,573.00
2023-02-23T00:28:10.444Z,574.00
2023-02-23T00:28:40.521Z,573.00
2023-02-23T00:29:10.601Z,572.00
2023-02-23T00:29:40.805Z,572.00
2023-02-23T00:30:49.782Z,579.00
2023-02-23T00:31:20.217Z,577.00
2023-02-23T00:31:50.005Z,575.00
2023-02-23T00:32:20.259Z,572.00
2023-02-23T00:32:49.971Z,571.00
2023-02-23T00:33:20.054Z,570.00
2023-02-23T00:33:50.144Z,571.00
2023-02-23T00:34:20.228Z,569.00
2023-02-23T00:34:50.311Z,568.00
2023-02-23T00:35:20.370Z,570.00
2023-02-23T00:35:50.445Z,568.00
2023-02-23T00:36:20.555Z,567.00
2023-02-23T00:36:50.600Z,567.00
2023-02-23T00:37:20.677Z,567.00
2023-02-23T00:37:50.747Z,566.00
2023-02-23T00:38:20.829Z,565.00
2023-02-23T00:38:50.937Z,563.00
2023-02-23T00:39:21.011Z,563.00
2023-02-23T00:39:51.086Z,563.00
2023-02-23T00:40:21.166Z,564.00
2023-02-23T00:40:51.282Z,564.00
2023-02-23T00:41:21.412Z,564.00
2023-02-23T00:41:51.386Z,563.00
2023-02-23T00:42:21.505Z,563.00
2023-02-23T00:42:51.689Z,561.00
2023-02-23T00:43:21.662Z,560.00
2023-02-23T00:43:51.730Z,555.00
2023-02-23T00:44:21.952Z,551.00
2023-02-23T00:44:51.853Z,555.00
2023-02-23T00:45:21.826Z,555.00
2023-02-23T00:45:51.953Z,555.00
2023-02-23T00:46:21.949Z,557.00
2023-02-23T00:46:52.473Z,557.00
2023-02-23T00:47:22.170Z,555.00
2023-02-23T00:47:52.315Z,553.00
2023-02-23T00:48:22.297Z,554.00
2023-02-23T00:48:52.309Z,554.00
2023-02-23T00:49:22.320Z,553.00
2023-02-23T00:49:52.421Z,555.00
2023-02-23T00:50:22.526Z,555.00
2023-02-23T00:50:52.647Z,557.00
2023-02-23T00:51:22.753Z,558.00
2023-02-23T00:51:52.868Z,558.00
2023-02-23T00:52:22.983Z,556.00
2023-02-23T00:52:53.092Z,557.00
2023-02-23T00:53:23.207Z,558.00
2023-02-23T00:53:53.336Z,557.00
2023-02-23T00:54:23.326Z,557.00
2023-02-23T00:54:53.457Z,559.00
2023-02-23T00:55:23.441Z,560.00
2023-02-23T00:55:53.437Z,563.00
2023-02-23T00:56:23.542Z,564.00
2023-02-23T00:56:53.654Z,565.00
2023-02-23T00:57:23.789Z,563.00
2023-02-23T00:57:53.900Z,559.00
2023-02-23T00:58:23.992Z,557.00
2023-02-23T00:58:54.113Z,558.00
2023-02-23T00:59:24.096Z,560.00
2023-02-23T00:59:54.217Z,561.00
2023-02-23T01:00:24.331Z,561.00
2023-02-23T01:00:54.323Z,560.00
2023-02-23T01:01:24.403Z,561.00
2023-02-23T01:01:54.387Z,561.00
2023-02-23T01:02:24.499Z,561.00
2023-02-23T01:02:54.608Z,560.00
2023-02-23T01:03:24.736Z,560.00
2023-02-23T01:03:54.838Z,561.00
2023-02-23T01:04:24.840Z,562.00
2023-02-23T01:04:54.949Z,561.00
2023-02-23T01:05:24.965Z,562.00
2023-02-23T01:05:55.079Z,563.00
2023-02-23T01:06:25.082Z,563.00
2023-02-23T01:06:55.180Z,563.00
2023-02-23T01:07:25.300Z,563.00
2023-02-23T01:07:55.290Z,563.00
2023-02-23T01:08:25.472Z,563.00
2023-02-23T01:08:55.458Z,563.00
2023-02-23T01:09:25.563Z,560.00
2023-02-23T01:09:55.659Z,561.00
2023-02-23T01:10:25.777Z,559.00
2023-02-23T01:10:55.889Z,558.00
2023-02-23T01:11:25.992Z,558.00
2023-02-23T01:11:56.119Z,561.00
2023-02-23T01:12:26.223Z,561.00
2023-02-23T01:12:56.440Z,560.00
2023-02-23T01:13:26.388Z,559.00
2023-02-23T01:13:56.516Z,559.00
2023-02-23T01:14:26.507Z,560.00
2023-02-23T01:14:56.620Z,559.00
2023-02-23T01:15:26.755Z,559.00
2023-02-23T01:15:56.753Z,561.00
2023-02-23T01:16:26.729Z,557.00
2023-02-23T01:16:56.848Z,558.00
2023-02-23T01:17:26.961Z,559.00
2023-02-23T01:17:57.083Z,558.00
2023-02-23T01:18:27.192Z,557.00
2023-02-23T01:18:57.307Z,555.00
2023-02-23T01:19:27.298Z,556.00
2023-02-23T01:19:57.415Z,556.00
2023-02-23T01:20:27.627Z,556.00
2023-02-23T01:20:57.587Z,554.00
2023-02-23T01:21:27.720Z,555.00
2023-02-23T01:21:57.810Z,556.00
2023-02-23T01:22:27.922Z,556.00
2023-02-23T01:22:58.044Z,553.00
2023-02-23T01:23:28.153Z,555.00
2023-02-23T01:23:58.270Z,553.00
2023-02-23T01:24:28.256Z,553.00
2023-02-23T01:24:58.375Z,554.00
2023-02-23T01:25:28.366Z,553.00
2023-02-23T01:25:58.492Z,554.00
2023-02-23T01:26:28.596Z,554.00
2023-02-23T01:26:58.704Z,554.00
2023-02-23T01:27:28.818Z,555.00
2023-02-23T01:27:58.925Z,555.00
2023-02-23T01:28:29.065Z,554.00
2023-02-23T01:28:59.155Z,557.00
2023-02-23T01:29:29.262Z,560.00
2023-02-23T01:29:59.377Z,561.00
2023-02-23T01:30:29.523Z,560.00
2023-02-23T01:30:59.543Z,561.00
2023-02-23T01:31:29.624Z,561.00
2023-02-23T01:31:59.584Z,562.00
2023-02-23T01:32:29.661Z,562.00
2023-02-23T01:32:59.605Z,561.00
2023-02-23T01:33:29.684Z,562.00
2023-02-23T01:33:59.793Z,563.00
2023-02-23T01:34:29.876Z,563.00
2023-02-23T01:34:59.944Z,561.00
2023-02-23T01:35:30.023Z,563.00
2023-02-23T01:36:00.140Z,563.00
2023-02-23T01:36:30.205Z,565.00
2023-02-23T01:37:00.298Z,567.00
2023-02-23T01:37:30.354Z,566.00
2023-02-23T01:38:00.425Z,565.00
2023-02-23T01:38:30.501Z,563.00
2023-02-23T01:39:00.585Z,565.00
2023-02-23T01:39:30.661Z,564.00
2023-02-23T01:40:00.745Z,565.00
2023-02-23T01:40:30.835Z,564.00
2023-02-23T01:41:00.951Z,563.00
2023-02-23T01:41:31.060Z,563.00
2023-02-23T01:42:01.177Z,562.00
2023-02-23T01:42:31.291Z,561.00
2023-02-23T01:43:01.411Z,560.00
2023-02-23T01:43:31.542Z,561.00
2023-02-23T01:44:01.666Z,561.00
2023-02-23T01:44:31.650Z,563.00
2023-02-23T01:45:01.769Z,562.00
2023-02-23T01:45:31.879Z,559.00
2023-02-23T01:46:02.012Z,560.00
2023-02-23T01:46:32.167Z,559.00
2023-02-23T01:47:02.155Z,557.00
2023-02-23T01:47:32.265Z,559.00
2023-02-23T01:48:02.378Z,561.00
2023-02-23T01:48:32.737Z,561.00
2023-02-23T01:49:02.592Z,561.00
2023-02-23T01:49:32.583Z,561.00
2023-02-23T01:50:02.706Z,562.00
2023-02-23T01:50:32.808Z,563.00
2023-02-23T01:51:02.916Z,563.00
2023-02-23T01:51:33.052Z,563.00
2023-02-23T01:52:03.143Z,562.00
2023-02-23T01:52:33.250Z,561.00
2023-02-23T01:53:03.398Z,562.00
2023-02-23T01:53:33.388Z,562.00
2023-02-23T01:54:03.509Z,562.00
2023-02-23T01:54:33.532Z,563.00
2023-02-23T01:55:03.520Z,564.00
2023-02-23T01:55:33.627Z,562.00
2023-02-23T01:56:03.746Z,564.00
2023-02-23T01:56:33.858Z,563.00
2023-02-23T01:57:03.979Z,564.00
2023-02-23T01:57:34.099Z,560.00
2023-02-23T01:58:04.203Z,558.00
2023-02-23T01:58:34.338Z,558.00
2023-02-23T01:59:04.333Z,559.00
2023-02-23T01:59:34.310Z,558.00
2023-02-23T02:00:04.455Z,559.00
2023-02-23T02:00:34.436Z,558.00
2023-02-23T02:01:04.542Z,559.00
2023-02-23T02:01:34.726Z,558.00
2023-02-23T02:02:04.701Z,559.00
2023-02-23T02:02:34.821Z,560.00
2023-02-23T02:03:04.800Z,557.00
2023-02-23T02:03:34.917Z,557.00
2023-02-23T02:04:05.056Z,556.00
2023-02-23T02:04:35.031Z,555.00
2023-02-23T02:05:05.221Z,555.00
2023-02-23T02:05:35.250Z,556.00
2023-02-23T02:06:05.237Z,556.00
2023-02-23T02:06:35.355Z,556.00
2023-02-23T02:07:05.458Z,557.00
2023-02-23T02:07:35.622Z,558.00
2023-02-23T02:08:05.582Z,560.00
2023-02-23T02:08:35.693Z,560.00
2023-02-23T02:09:05.843Z,560.00
2023-02-23T02:09:35.811Z,561.00
2023-02-23T02:10:05.928Z,559.00
2023-02-23T02:10:36.040Z,557.00
2023-02-23T02:11:06.150Z,556.00
2023-02-23T02:11:36.298Z,557.00
2023-02-23T02:12:06.272Z,556.00
2023-02-23T02:12:36.382Z,556.00
2023-02-23T02:13:06.496Z,556.00
2023-02-23T02:13:36.637Z,556.00
2023-02-23T02:14:06.765Z,554.00
2023-02-23T02:14:36.753Z,553.00
2023-02-23T02:15:06.863Z,554.00
2023-02-23T02:15:36.971Z,555.00
2023-02-23T02:16:07.145Z,556.00
2023-02-23T02:16:37.114Z,557.00
2023-02-23T02:17:07.220Z,556.00
2023-02-23T02:17:37.344Z,556.00
2023-02-23T02:18:07.450Z,557.00
2023-02-23T02:18:37.558Z,557.00
2023-02-23T02:19:07.692Z,558.00
2023-02-23T02:19:37.681Z,561.00
2023-02-23T02:20:07.800Z,563.00
2023-02-23T02:20:37.914Z,563.00
2023-02-23T02:21:08.021Z,563.00
2023-02-23T02:21:38.142Z,563.00
2023-02-23T02:22:08.250Z,562.00
2023-02-23T02:22:38.367Z,561.00
2023-02-23T02:23:08.484Z,561.00
2023-02-23T02:23:38.579Z,558.00
2023-02-23T02:24:08.739Z,558.00
2023-02-23T02:24:38.754Z,556.00
2023-02-23T02:25:08.787Z,556.00
2023-02-23T02:25:38.751Z,557.00
2023-02-23T02:26:08.864Z,559.00
2023-02-23T02:26:38.979Z,559.00
2023-02-23T02:27:09.090Z,561.00
2023-02-23T02:27:39.210Z,560.00
2023-02-23T02:28:09.318Z,559.00
2023-02-23T02:28:39.451Z,560.00
2023-02-23T02:29:09.569Z,561.00
2023-02-23T02:29:39.552Z,561.00
2023-02-23T02:30:09.667Z,558.00
2023-02-23T02:30:39.812Z,557.00
2023-02-23T02:31:09.922Z,554.00
2023-02-23T02:31:39.966Z,552.00
2023-02-23T02:32:09.951Z,556.00
2023-02-23T02:32:39.871Z,556.00
2023-02-23T02:33:09.946Z,556.00
2023-02-23T02:33:40.018Z,557.00
2023-02-23T02:34:10.116Z,556.00
2023-02-23T02:34:40.178Z,556.00
2023-02-23T02:35:10.255Z,558.00
2023-02-23T02:35:40.350Z,559.00
2023-02-23T02:36:10.408Z,560.00
2023-02-23T02:36:40.479Z,558.00
2023-02-23T02:37:10.563Z,557.00
2023-02-23T02:37:40.633Z,557.00
2023-02-23T02:38:10.742Z,553.00
2023-02-23T02:38:40.785Z,555.00
2023-02-23T02:39:10.885Z,551.00
2023-02-23T02:39:40.964Z,550.00
2023-02-23T02:40:11.023Z,550.00
2023-02-23T02:40:41.029Z,547.00
2023-02-23T02:41:11.147Z,547.00
2023-02-23T02:41:41.262Z,545.00
2023-02-23T02:42:11.376Z,545.00
2023-02-23T02:42:41.487Z,546.00
2023-02-23T02:43:11.733Z,545.00
2023-02-23T02:43:41.616Z,545.00
2023-02-23T02:44:11.887Z,545.00
2023-02-23T02:44:41.728Z,547.00
2023-02-23T02:45:11.841Z,547.00
2023-02-23T02:45:41.959Z,548.00
2023-02-23T02:46:12.203Z,547.00
2023-02-23T02:46:42.063Z,546.00
2023-02-23T02:47:12.186Z,549.00
2023-02-23T02:47:42.293Z,548.00
2023-02-23T02:48:12.401Z,550.00
2023-02-23T02:48:42.505Z,549.00
2023-02-23T02:49:12.652Z,549.00
2023-02-23T02:49:42.750Z,549.00
2023-02-23T02:50:12.886Z,551.00
2023-02-23T02:50:42.971Z,551.00
2023-02-23T02:51:13.082Z,549.00
2023-02-23T02:51:43.195Z,549.00
2023-02-23T02:52:13.304Z,550.00
2023-02-23T02:52:43.414Z,550.00
2023-02-23T02:53:13.537Z,553.00
2023-02-23T02:53:43.640Z,554.00
2023-02-23T02:54:13.776Z,550.00
2023-02-23T02:54:43.766Z,547.00
2023-02-23T02:55:13.879Z,546.00
2023-02-23T02:55:43.999Z,547.00
2023-02-23T02:56:14.106Z,548.00
2023-02-23T02:56:44.217Z,548.00
2023-02-23T02:57:14.330Z,547.00
2023-02-23T02:57:44.444Z,547.00
2023-02-23T02:58:14.554Z,548.00
2023-02-23T02:58:44.664Z,547.00
2023-02-23T02:59:14.797Z,547.00
2023-02-23T02:59:44.896Z,545.00
2023-02-23T03:00:15.009Z,547.00
2023-02-23T03:00:45.119Z,550.00
2023-02-23T03:01:15.307Z,551.00
2023-02-23T03:01:45.327Z,553.00
2023-02-23T03:02:15.324Z,552.00
2023-02-23T03:02:45.428Z,553.00
2023-02-23T03:03:15.543Z,552.00
2023-02-23T03:03:45.655Z,553.00
2023-02-23T03:04:15.789Z,553.00
2023-02-23T03:04:45.830Z,553.00
2023-02-23T03:05:15.938Z,554.00
2023-02-23T03:05:45.911Z,551.00
2023-02-23T03:06:16.022Z,550.00
2023-02-23T03:06:46.145Z,549.00
2023-02-23T03:07:16.255Z,549.00
2023-02-23T03:07:46.368Z,549.00
2023-02-23T03:08:16.372Z,550.00
2023-02-23T03:08:46.474Z,550.00
2023-02-23T03:09:16.582Z,550.00
2023-02-23T03:09:46.713Z,553.00
2023-02-23T03:10:16.821Z,553.00
2023-02-23T03:10:46.944Z,554.00
2023-02-23T03:11:17.235Z,553.00
2023-02-23T03:11:46.939Z,552.00
2023-02-23T03:12:17.054Z,554.00
2023-02-23T03:12:47.163Z,554.00
2023-02-23T03:13:17.286Z,556.00
2023-02-23T03:13:47.397Z,556.00
2023-02-23T03:14:17.522Z,555.00
2023-02-23T03:14:47.628Z,554.00
2023-02-23T03:15:17.737Z,556.00
2023-02-23T03:15:47.907Z,555.00
2023-02-23T03:16:17.983Z,556.00
2023-02-23T03:16:47.956Z,554.00
2023-02-23T03:17:18.069Z,555.00
2023-02-23T03:17:48.192Z,558.00
2023-02-23T03:18:18.301Z,560.00
2023-02-23T03:18:48.425Z,558.00
2023-02-23T03:19:18.412Z,557.00
2023-02-23T03:19:48.524Z,556.00
2023-02-23T03:20:18.647Z,555.00
2023-02-23T03:20:48.749Z,555.00
2023-02-23T03:21:19.171Z,553.00
2023-02-23T03:21:48.940Z,552.00
2023-02-23T03:22:19.053Z,553.00
2023-02-23T03:22:49.169Z,554.00
2023-02-23T03:23:19.280Z,555.00
2023-02-23T03:23:49.417Z,556.00
2023-02-23T03:24:19.402Z,556.00
2023-02-23T03:24:49.426Z,556.00
2023-02-23T03:25:19.543Z,555.00
2023-02-23T03:25:49.652Z,555.00
2023-02-23T03:26:19.766Z,555.00
2023-02-23T03:26:49.880Z,554.00
2023-02-23T03:27:19.999Z,553.00
2023-02-23T03:27:49.996Z,553.00
2023-02-23T03:28:20.104Z,554.00
2023-02-23T03:28:50.252Z,553.00
2023-02-23T03:29:20.215Z,554.00
2023-02-23T03:29:50.364Z,553.00
2023-02-23T03:30:20.325Z,552.00
2023-02-23T03:30:50.413Z,552.00
2023-02-23T03:31:20.783Z,552.00
2023-02-23T03:31:50.670Z,553.00
2023-02-23T03:32:20.752Z,553.00
2023-02-23T03:32:50.707Z,553.00
2023-02-23T03:33:20.779Z,554.00
2023-02-23T03:33:50.852Z,554.00
2023-02-23T03:34:20.921Z,554.00
2023-02-23T03:34:51.012Z,554.00
2023-02-23T03:35:21.079Z,554.00
2023-02-23T03:35:51.175Z,552.00
2023-02-23T03:36:21.226Z,551.00
2023-02-23T03:36:51.297Z,551.00
2023-02-23T03:37:21.371Z,551.00
2023-02-23T03:37:51.449Z,551.00
2023-02-23T03:38:21.527Z,551.00
2023-02-23T03:38:51.617Z,552.00
2023-02-23T03:39:21.688Z,554.00
2023-02-23T03:39:51.781Z,555.00
2023-02-23T03:40:21.849Z,553.00
2023-02-23T03:40:51.961Z,553.00
2023-02-23T03:41:21.967Z,554.00
2023-02-23T03:41:52.068Z,552.00
2023-02-23T03:42:22.178Z,551.00
2023-02-23T03:42:52.291Z,551.00
2023-02-23T03:43:22.405Z,552.00
2023-02-23T03:43:52.560Z,553.00
2023-02-23T03:44:22.537Z,552.00
2023-02-23T03:44:52.680Z,551.00
2023-02-23T03:45:22.816Z,550.00
2023-02-23T03:45:52.824Z,549.00
2023-02-23T03:46:22.819Z,550.00
2023-02-23T03:46:52.938Z,550.00
2023-02-23T03:47:23.036Z,551.00
2023-02-23T03:47:53.154Z,552.00
2023-02-23T03:48:23.271Z,551.00
2023-02-23T03:48:53.396Z,551.00
2023-02-23T03:49:23.374Z,552.00
2023-02-23T03:49:53.504Z,553.00
2023-02-23T03:50:23.601Z,554.00
2023-02-23T03:50:53.711Z,554.00
2023-02-23T03:51:23.840Z,554.00
2023-02-23T03:51:53.942Z,551.00
2023-02-23T03:52:24.052Z,552.00
2023-02-23T03:52:54.170Z,550.00
2023-02-23T03:53:24.288Z,551.00
2023-02-23T03:53:54.415Z,548.00
2023-02-23T03:54:24.410Z,548.00
2023-02-23T03:54:54.528Z,548.00
2023-02-23T03:55:24.643Z,547.00
2023-02-23T03:55:54.766Z,549.00
2023-02-23T03:56:24.886Z,551.00
2023-02-23T03:56:54.990Z,550.00
2023-02-23T03:57:25.087Z,548.00
2023-02-23T03:57:55.208Z,549.00
2023-02-23T03:58:25.328Z,551.00
2023-02-23T03:58:55.457Z,550.00
2023-02-23T03:59:25.439Z,549.00
2023-02-23T03:59:55.571Z,549.00
2023-02-23T04:00:25.708Z,551.00
2023-02-23T04:00:55.710Z,552.00
2023-02-23T04:01:25.817Z,553.00
2023-02-23T04:01:55.952Z,553.00
2023-02-23T04:02:25.927Z,552.00
2023-02-23T04:02:56.041Z,545.00
2023-02-23T04:03:26.155Z,550.00
2023-02-23T04:03:56.280Z,549.00
2023-02-23T04:04:26.272Z,549.00
2023-02-23T04:04:56.378Z,550.00
2023-02-23T04:05:26.488Z,551.00
2023-02-23T04:05:56.602Z,551.00
2023-02-23T04:06:26.714Z,549.00
2023-02-23T04:06:56.836Z,549.00
2023-02-23T04:07:26.834Z,549.00
2023-02-23T04:07:56.950Z,548.00
2023-02-23T04:08:27.058Z,546.00
2023-02-23T04:08:57.177Z,546.00
2023-02-23T04:09:27.168Z,547.00
2023-02-23T04:09:57.290Z,546.00
2023-02-23T04:10:27.401Z,549.00
2023-02-23T04:10:57.502Z,549.00
2023-02-23T04:11:27.624Z,549.00
2023-02-23T04:11:57.728Z,549.00
2023-02-23T04:12:27.843Z,550.00
2023-02-23T04:12:57.955Z,549.00
2023-02-23T04:13:28.083Z,548.00
2023-02-23T04:13:58.190Z,550.00
2023-02-23T04:14:28.175Z,550.00
2023-02-23T04:14:58.307Z,551.00
2023-02-23T04:15:28.397Z,551.00
2023-02-23T04:15:58.526Z,553.00
2023-02-23T04:16:28.693Z,552.00
2023-02-23T04:16:58.683Z,553.00
2023-02-23T04:17:28.813Z,553.00
2023-02-23T04:17:58.917Z,552.00
2023-02-23T04:18:29.049Z,550.00
2023-02-23T04:18:59.162Z,549.00
2023-02-23T04:19:29.147Z,550.00
2023-02-23T04:19:59.147Z,549.00
2023-02-23T04:20:29.285Z,548.00
2023-02-23T04:20:59.326Z,548.00
2023-02-23T04:21:29.366Z,548.00
2023-02-23T04:21:59.354Z,544.00
2023-02-23T04:22:29.464Z,546.00
2023-02-23T04:22:59.578Z,545.00
2023-02-23T04:23:29.697Z,545.00
2023-02-23T04:23:59.829Z,545.00
2023-02-23T04:24:29.923Z,543.00
2023-02-23T04:25:00.044Z,545.00
2023-02-23T04:25:30.160Z,542.00
2023-02-23T04:26:00.268Z,543.00
2023-02-23T04:26:30.265Z,542.00
2023-02-23T04:27:00.375Z,540.00
2023-02-23T04:27:30.511Z,541.00
2023-02-23T04:28:00.498Z,541.00
2023-02-23T04:28:30.618Z,541.00
2023-02-23T04:29:00.724Z,540.00
2023-02-23T04:29:30.849Z,539.00
2023-02-23T04:30:00.839Z,540.00
2023-02-23T04:30:30.998Z,540.00
2023-02-23T04:31:01.053Z,541.00
2023-02-23T04:31:31.347Z,542.00
2023-02-23T04:32:01.116Z,542.00
2023-02-23T04:32:31.169Z,542.00
2023-02-23T04:33:01.177Z,543.00
2023-02-23T04:33:31.255Z,543.00
2023-02-23T04:34:01.332Z,542.00
2023-02-23T04:34:31.404Z,541.00
2023-02-23T04:35:01.488Z,541.00
2023-02-23T04:35:31.549Z,541.00
2023-02-23T04:36:01.644Z,543.00
2023-02-23T04:36:31.706Z,543.00
2023-02-23T04:37:01.777Z,542.00
2023-02-23T04:37:31.856Z,542.00
2023-02-23T04:38:01.935Z,544.00
2023-02-23T04:38:32.008Z,543.00
2023-02-23T04:39:02.117Z,543.00
2023-02-23T04:39:32.177Z,543.00
2023-02-23T04:40:02.254Z,542.00
2023-02-23T04:40:32.348Z,542.00
2023-02-23T04:41:02.469Z,543.00
2023-02-23T04:41:32.578Z,544.00
2023-02-23T04:42:02.695Z,544.00
2023-02-23T04:42:32.811Z,542.00
2023-02-23T04:43:02.923Z,540.00
2023-02-23T04:43:33.039Z,538.00
2023-02-23T04:44:03.175Z,539.00
2023-02-23T04:44:33.173Z,539.00
2023-02-23T04:45:03.294Z,539.00
2023-02-23T04:45:33.417Z,539.00
2023-02-23T04:46:03.556Z,538.00
2023-02-23T04:46:33.546Z,536.00
2023-02-23T04:47:03.661Z,534.00
2023-02-23T04:47:33.653Z,532.00
2023-02-23T04:48:03.665Z,535.00
2023-02-23T04:48:33.779Z,533.00
2023-02-23T04:49:03.892Z,533.00
2023-02-23T04:49:34.002Z,539.00
2023-02-23T04:50:04.129Z,540.00
2023-02-23T04:50:34.241Z,541.00
2023-02-23T04:51:04.355Z,540.00
2023-02-23T04:51:34.476Z,543.00
2023-02-23T04:52:04.596Z,546.00
2023-02-23T04:52:34.701Z,602.00
2023-02-23T04:53:04.820Z,578.00
2023-02-23T04:53:34.820Z,573.00
2023-02-23T04:54:04.943Z,570.00
2023-02-23T04:54:35.052Z,572.00
2023-02-23T04:55:05.166Z,573.00
2023-02-23T04:55:35.281Z,573.00
2023-02-23T04:56:05.399Z,574.00
2023-02-23T04:56:35.384Z,575.00
2023-02-23T04:57:05.511Z,576.00
2023-02-23T04:57:35.623Z,579.00
2023-02-23T04:58:05.734Z,579.00
2023-02-23T04:58:35.848Z,581.00
2023-02-23T04:59:05.958Z,582.00
2023-02-23T04:59:36.069Z,584.00
2023-02-23T05:00:06.178Z,585.00
2023-02-23T05:00:36.316Z,586.00
2023-02-23T05:01:06.455Z,584.00
2023-02-23T05:01:36.464Z,583.00
2023-02-23T05:02:06.467Z,582.00
2023-02-23T05:02:36.569Z,583.00
2023-02-23T05:03:06.692Z,584.00
2023-02-23T05:03:36.788Z,584.00
2023-02-23T05:04:06.907Z,583.00
2023-02-23T05:04:37.109Z,584.00
2023-02-23T05:05:07.148Z,583.00
2023-02-23T05:05:37.100Z,585.00
2023-02-23T05:06:07.220Z,583.00
2023-02-23T05:06:37.317Z,582.00
2023-02-23T05:07:07.432Z,581.00
2023-02-23T05:07:37.544Z,582.00
2023-02-23T05:08:07.656Z,580.00
2023-02-23T05:08:37.776Z,582.00
2023-02-23T05:09:07.884Z,594.00
2023-02-23T05:09:38.016Z,601.00
2023-02-23T05:10:08.117Z,602.00
2023-02-23T05:10:40.264Z,603.00
2023-02-23T05:11:08.282Z,619.00
2023-02-23T05:11:38.390Z,619.00
2023-02-23T05:12:08.403Z,615.00
2023-02-23T05:12:38.503Z,618.00
2023-02-23T05:13:08.639Z,616.00
2023-02-23T05:13:38.625Z,615.00
2023-02-23T05:14:08.610Z,617.00
2023-02-23T05:14:38.753Z,617.00
2023-02-23T05:15:08.726Z,620.00
2023-02-23T05:15:38.902Z,621.00
2023-02-23T05:16:08.981Z,623.00
2023-02-23T05:16:38.959Z,629.00
2023-02-23T05:17:09.083Z,627.00
2023-02-23T05:17:39.191Z,642.00
2023-02-23T05:18:09.303Z,641.00
2023-02-23T05:18:39.413Z,643.00
2023-02-23T05:19:09.528Z,645.00
2023-02-23T05:19:39.643Z,648.00
2023-02-23T05:20:09.757Z,651.00
2023-02-23T05:20:39.908Z,651.00
2023-02-23T05:21:09.903Z,658.00
2023-02-23T05:21:40.027Z,667.00
2023-02-23T05:22:10.017Z,671.00
2023-02-23T05:22:40.041Z,675.00
2023-02-23T05:23:10.028Z,678.00
2023-02-23T05:23:40.143Z,679.00
2023-02-23T05:24:10.247Z,679.00
2023-02-23T05:24:40.380Z,684.00
2023-02-23T05:25:10.504Z,683.00
2023-02-23T05:25:40.595Z,681.00
2023-02-23T05:26:10.597Z,680.00
2023-02-23T05:26:40.577Z,677.00
2023-02-23T05:27:10.573Z,679.00
2023-02-23T05:27:40.684Z,682.00
2023-02-23T05:28:10.805Z,683.00
2023-02-23T05:28:40.908Z,686.00
2023-02-23T05:29:10.940Z,690.00
2023-02-23T05:29:40.914Z,692.00
2023-02-23T05:30:11.051Z,694.00
2023-02-23T05:30:41.152Z,698.00
2023-02-23T05:31:11.392Z,700.00
2023-02-23T05:31:41.404Z,700.00
2023-02-23T05:32:11.504Z,700.00
2023-02-23T05:32:41.334Z,701.00
2023-02-23T05:33:11.406Z,701.00
2023-02-23T05:33:41.510Z,703.00
2023-02-23T05:34:11.586Z,702.00
2023-02-23T05:34:41.661Z,703.00
2023-02-23T05:35:11.740Z,701.00
2023-02-23T05:35:41.833Z,697.00
2023-02-23T05:36:11.915Z,696.00
2023-02-23T05:36:41.967Z,695.00
2023-02-23T05:37:12.045Z,697.00
2023-02-23T05:37:42.157Z,697.00
2023-02-23T05:38:12.230Z,698.00
2023-02-23T05:38:42.304Z,699.00
2023-02-23T05:39:12.381Z,700.00
2023-02-23T05:39:42.455Z,700.00
2023-02-23T05:40:12.532Z,702.00
2023-02-23T05:40:42.644Z,703.00
2023-02-23T05:41:12.662Z,705.00
2023-02-23T05:41:42.760Z,705.00
2023-02-23T05:42:12.879Z,703.00
2023-02-23T05:42:43.001Z,701.00
2023-02-23T05:43:13.008Z,699.00
2023-02-23T05:43:43.112Z,697.00
2023-02-23T05:44:13.242Z,693.00
2023-02-23T05:44:43.222Z,687.00
2023-02-23T05:45:13.341Z,682.00
2023-02-23T05:45:43.457Z,675.00
2023-02-23T05:46:13.603Z,664.00
2023-02-23T05:46:43.566Z,655.00
2023-02-23T05:47:13.709Z,650.00
2023-02-23T05:47:43.796Z,645.00
2023-02-23T05:48:13.910Z,643.00
2023-02-23T05:48:44.027Z,636.00
2023-02-23T05:49:14.137Z,628.00
2023-02-23T05:49:44.248Z,623.00
2023-02-23T05:50:14.368Z,617.00
2023-02-23T05:50:44.482Z,614.00
2023-02-23T05:51:14.600Z,611.00
2023-02-23T05:51:44.704Z,609.00
2023-02-23T05:52:14.807Z,602.00
2023-02-23T05:52:44.925Z,600.00
2023-02-23T05:53:15.036Z,597.00
2023-02-23T05:53:45.149Z,594.00
2023-02-23T05:54:15.266Z,592.00
2023-02-23T05:54:45.394Z,580.00
2023-02-23T05:55:15.488Z,572.00
2023-02-23T05:55:45.607Z,572.00
2023-02-23T05:56:15.719Z,573.00
2023-02-23T05:56:45.831Z,570.00
2023-02-23T05:57:15.940Z,570.00
2023-02-23T05:57:46.079Z,571.00
2023-02-23T05:58:16.060Z,571.00
2023-02-23T05:58:46.170Z,572.00
2023-02-23T05:59:16.284Z,570.00
2023-02-23T05:59:46.401Z,567.00
2023-02-23T06:00:16.526Z,565.00
2023-02-23T06:00:46.621Z,563.00
2023-02-23T06:01:16.841Z,564.00
2023-02-23T06:01:46.746Z,563.00
2023-02-23T06:02:16.913Z,559.00
2023-02-23T06:02:46.951Z,557.00
2023-02-23T06:03:17.039Z,555.00
2023-02-23T06:03:47.083Z,554.00
2023-02-23T06:04:17.135Z,551.00
2023-02-23T06:04:47.260Z,551.00
2023-02-23T06:05:17.243Z,550.00
2023-02-23T06:05:47.354Z,550.00
2023-02-23T06:06:17.475Z,548.00
2023-02-23T06:06:47.587Z,546.00
2023-02-23T06:07:17.706Z,546.00
2023-02-23T06:07:47.822Z,547.00
2023-02-23T06:08:17.932Z,545.00
2023-02-23T06:08:48.042Z,545.00
2023-02-23T06:09:18.160Z,544.00
2023-02-23T06:09:48.274Z,541.00
2023-02-23T06:10:18.398Z,540.00
2023-02-23T06:10:48.495Z,540.00
2023-02-23T06:11:18.925Z,539.00
2023-02-23T06:11:48.695Z,539.00
2023-02-23T06:12:18.812Z,538.00
2023-02-23T06:12:48.918Z,536.00
2023-02-23T06:13:19.043Z,534.00
2023-02-23T06:13:49.032Z,529.00
2023-02-23T06:14:19.032Z,527.00
2023-02-23T06:14:49.032Z,525.00
2023-02-23T06:15:19.151Z,524.00
2023-02-23T06:15:49.327Z,524.00